createdAt,value
2019-04-03T00:00:24.371Z,42.93
2019-04-03T00:02:55.535Z,46.18
2019-04-03T00:05:26.635Z,46.35
2019-04-03T00:07:57.604Z,44.10
2019-04-03T00:10:28.661Z,39.88
2019-04-03T00:12:59.716Z,46.48
2019-04-03T00:15:30.633Z,43.05
2019-04-03T00:18:01.941Z,39.30
2019-04-03T00:20:32.854Z,40.43
2019-04-03T00:23:03.947Z,43.40
2019-04-03T00:25:34.948Z,39.42
2019-04-03T00:28:06.077Z,40.80
2019-04-03T00:30:38.051Z,47.98
2019-04-03T00:33:09.109Z,37.58
2019-04-03T00:35:40.160Z,40.75
2019-04-03T00:38:11.314Z,41.90
2019-04-03T00:40:42.197Z,39.40
2019-04-03T00:43:13.167Z,40.48
2019-04-03T00:45:44.087Z,38.88
2019-04-03T00:48:15.218Z,44.85
2019-04-03T00:50:46.141Z,44.42
2019-04-03T00:53:17.105Z,48.35
2019-04-03T00:55:48.093Z,41.98
2019-04-03T00:58:39.911Z,49.70
2019-04-03T01:01:12.044Z,51.10
2019-04-03T01:03:43.114Z,47.48
2019-04-03T01:06:13.988Z,51.20
2019-04-03T01:08:45.041Z,48.60
2019-04-03T01:11:17.143Z,48.60
2019-04-03T01:13:48.243Z,46.18
2019-04-03T01:16:19.212Z,45.60
2019-04-03T01:18:50.280Z,48.20
2019-04-03T01:21:21.259Z,45.70
2019-04-03T01:23:52.386Z,45.90
2019-04-03T01:26:23.362Z,45.38
2019-04-03T01:28:54.378Z,45.03
2019-04-03T01:31:25.361Z,48.42
2019-04-03T01:33:56.313Z,51.42
2019-04-03T01:36:27.304Z,47.78
2019-04-03T01:38:58.354Z,46.48
2019-04-03T01:41:29.286Z,48.55
2019-04-03T01:44:01.431Z,46.10
2019-04-03T01:46:32.380Z,53.45
2019-04-03T01:49:03.380Z,47.30
2019-04-03T01:51:34.235Z,49.30
2019-04-03T01:54:05.358Z,51.92
2019-04-03T01:56:36.422Z,49.73
2019-04-03T01:59:07.506Z,49.13
2019-04-03T02:01:39.232Z,44.77
2019-04-03T02:04:13.015Z,43.08
2019-04-03T02:06:44.351Z,45.80
2019-04-03T02:09:16.062Z,46.50
2019-04-03T02:11:47.630Z,45.73
2019-04-03T02:14:21.586Z,44.53
2019-04-03T02:16:53.499Z,49.63
2019-04-03T02:19:26.101Z,52.27
2019-04-03T02:21:58.511Z,50.25
2019-04-03T02:24:31.815Z,47.53
2019-04-03T02:27:03.492Z,42.27
2019-04-03T02:29:34.539Z,44.05
2019-04-03T02:32:05.438Z,50.88
2019-04-03T02:34:37.711Z,48.68
2019-04-03T02:37:08.808Z,48.35
2019-04-03T02:39:40.137Z,48.98
2019-04-03T02:42:11.117Z,50.00
2019-04-03T02:44:42.022Z,47.67
2019-04-03T02:47:13.011Z,60.15
2019-04-03T02:49:44.089Z,48.33
2019-04-03T02:52:14.966Z,53.87
2019-04-03T02:54:46.046Z,49.45
2019-04-03T02:57:18.184Z,53.35
2019-04-03T02:59:49.842Z,66.93
2019-04-03T03:02:21.739Z,57.88
2019-04-03T03:04:54.667Z,55.70
2019-04-03T03:07:25.698Z,63.78
2019-04-03T03:09:56.985Z,56.10
2019-04-03T03:12:28.740Z,64.97
2019-04-03T03:14:59.814Z,59.98
2019-04-03T03:17:30.732Z,59.90
2019-04-03T03:20:06.547Z,60.40
2019-04-03T03:22:37.909Z,66.92
2019-04-03T03:25:09.355Z,66.45
2019-04-03T03:27:42.083Z,68.37
2019-04-03T03:30:33.211Z,50.12
2019-04-03T03:32:46.057Z,61.55
2019-04-03T03:35:25.982Z,65.32
2019-04-03T03:37:50.817Z,65.80
2019-04-03T03:40:21.709Z,66.80
2019-04-03T03:42:52.642Z,68.83
2019-04-03T03:45:23.682Z,67.55
2019-04-03T03:47:54.660Z,66.10
2019-04-03T03:50:25.929Z,68.85
2019-04-03T03:52:57.199Z,70.62
2019-04-03T03:55:28.654Z,69.32
2019-04-03T03:57:59.932Z,84.72
2019-04-03T04:00:30.944Z,73.80
2019-04-03T04:03:02.987Z,74.70
2019-04-03T04:05:34.352Z,74.17
2019-04-03T04:08:09.353Z,78.02
2019-04-03T04:10:37.999Z,84.97
2019-04-03T04:13:13.608Z,80.65
2019-04-03T04:15:41.669Z,82.00
2019-04-03T04:18:15.031Z,91.12
2019-04-03T04:20:45.776Z,83.95
2019-04-03T04:23:16.896Z,87.55
2019-04-03T04:25:47.842Z,82.33
2019-04-03T04:28:19.288Z,86.35
2019-04-03T04:30:50.473Z,83.10
2019-04-03T04:33:21.390Z,86.40
2019-04-03T04:35:52.973Z,86.05
2019-04-03T04:38:24.822Z,81.53
2019-04-03T04:40:56.969Z,83.55
2019-04-03T04:43:29.015Z,86.02
2019-04-03T04:46:01.076Z,85.25
2019-04-03T04:48:32.200Z,78.57
2019-04-03T04:51:03.218Z,82.62
2019-04-03T04:53:34.199Z,77.22
2019-04-03T04:56:06.502Z,75.25
2019-04-03T04:58:38.292Z,78.65
2019-04-03T05:01:09.163Z,74.55
2019-04-03T05:03:41.150Z,76.25
2019-04-03T05:06:12.225Z,74.27
2019-04-03T05:08:43.163Z,76.47
2019-04-03T05:11:14.184Z,72.45
2019-04-03T05:13:46.876Z,78.33
2019-04-03T05:16:20.173Z,75.12
2019-04-03T05:18:50.534Z,77.87
2019-04-03T05:21:22.305Z,73.87
2019-04-03T05:23:55.686Z,73.70
2019-04-03T05:26:26.320Z,80.75
2019-04-03T05:28:57.813Z,77.72
2019-04-03T05:31:32.153Z,67.97
2019-04-03T05:34:03.064Z,75.92
2019-04-03T05:36:34.127Z,51.90
2019-04-03T05:39:07.344Z,50.85
2019-04-03T05:41:38.363Z,50.43
2019-04-03T05:44:12.153Z,49.20
2019-04-03T05:46:43.191Z,52.50
2019-04-03T05:49:14.314Z,51.30
2019-04-03T05:51:45.502Z,228.73
2019-04-03T05:54:16.419Z,140.95
2019-04-03T05:56:47.650Z,49.45
2019-04-03T05:59:19.246Z,53.05
2019-04-03T06:01:50.218Z,58.17
2019-04-03T06:04:22.025Z,57.65
2019-04-03T06:06:53.067Z,264.88
2019-04-03T06:09:24.009Z,93.35
2019-04-03T06:11:54.959Z,56.90
2019-04-03T06:14:25.918Z,55.20
2019-04-03T06:16:57.281Z,55.55
2019-04-03T06:19:28.354Z,54.73
2019-04-03T06:21:59.404Z,50.95
2019-04-03T06:24:30.353Z,50.05
2019-04-03T06:27:01.309Z,53.30
2019-04-03T06:29:32.449Z,42.70
2019-04-03T06:32:05.779Z,41.58
2019-04-03T06:34:38.389Z,35.70
2019-04-03T06:37:09.145Z,36.50
2019-04-03T06:39:40.167Z,106.52
2019-04-03T06:42:13.017Z,298.55
2019-04-03T06:44:45.510Z,68.22
2019-04-03T06:47:16.577Z,36.27
2019-04-03T06:49:47.562Z,30.68
2019-04-03T06:52:20.957Z,147.93
2019-04-03T06:54:51.124Z,51.83
2019-04-03T06:57:22.080Z,32.28
2019-04-03T06:59:53.413Z,28.55
2019-04-03T07:02:27.289Z,26.40
2019-04-03T07:04:57.952Z,22.53
2019-04-03T07:07:34.198Z,21.57
2019-04-03T07:10:03.752Z,22.30
2019-04-03T07:12:34.386Z,19.27
2019-04-03T07:15:06.902Z,12.63
2019-04-03T07:17:38.161Z,16.30
2019-04-03T07:20:14.492Z,19.37
2019-04-03T07:22:41.988Z,15.23
2019-04-03T07:25:12.805Z,23.47
2019-04-03T07:27:43.907Z,18.20
2019-04-03T07:30:16.959Z,16.30
2019-04-03T07:32:48.076Z,18.20
2019-04-03T07:35:18.983Z,18.20
2019-04-03T07:37:51.054Z,13.80
2019-04-03T07:40:22.376Z,13.62
2019-04-03T07:42:56.285Z,25.48
2019-04-03T07:45:26.900Z,52.43
2019-04-03T07:47:57.928Z,8.23
2019-04-03T07:50:28.670Z,9.70
2019-04-03T07:52:59.760Z,9.33
2019-04-03T07:55:30.733Z,16.15
2019-04-03T07:58:01.898Z,17.65
2019-04-03T08:00:32.790Z,22.95
2019-04-03T08:03:03.736Z,107.50
2019-04-03T08:05:35.562Z,65.50
2019-04-03T08:08:06.844Z,187.30
2019-04-03T08:10:37.937Z,27.62
2019-04-03T08:13:09.283Z,22.65
2019-04-03T08:15:40.204Z,12.70
2019-04-03T08:18:11.208Z,13.05
2019-04-03T08:20:42.087Z,11.18
2019-04-03T08:23:13.237Z,9.85
2019-04-03T08:25:47.182Z,12.45
2019-04-03T08:28:17.001Z,12.37
2019-04-03T08:30:48.014Z,12.53
2019-04-03T08:33:25.279Z,8.38
2019-04-03T08:35:51.892Z,13.93
2019-04-03T08:38:22.902Z,16.25
2019-04-03T08:40:53.834Z,15.35
2019-04-03T08:43:24.740Z,11.80
2019-04-03T08:45:55.745Z,8.63
2019-04-03T08:48:26.595Z,8.85
2019-04-03T08:50:58.417Z,11.08
2019-04-03T08:53:30.211Z,13.50
2019-04-03T08:56:01.469Z,12.20
2019-04-03T08:58:32.678Z,10.38
2019-04-03T09:01:04.849Z,6.78
2019-04-03T09:03:36.602Z,17.63
2019-04-03T09:06:08.377Z,37.28
2019-04-03T09:08:39.482Z,13.95
2019-04-03T09:11:10.813Z,133.57
2019-04-03T09:13:41.737Z,127.80
2019-04-03T09:16:12.766Z,35.88
2019-04-03T09:18:43.695Z,81.08
2019-04-03T09:21:15.577Z,68.55
2019-04-03T09:23:47.118Z,17.65
2019-04-03T09:26:18.011Z,10.13
2019-04-03T09:28:49.185Z,11.48
2019-04-03T09:31:20.771Z,8.65
2019-04-03T09:33:51.760Z,7.12
2019-04-03T09:36:22.588Z,8.58
2019-04-03T09:38:53.410Z,12.95
2019-04-03T09:41:24.328Z,16.95
2019-04-03T09:43:55.561Z,18.10
2019-04-03T09:46:26.834Z,14.75
2019-04-03T09:48:59.386Z,14.33
2019-04-03T09:51:30.575Z,11.65
2019-04-03T09:54:01.626Z,59.58
2019-04-03T09:56:32.642Z,32.85
2019-04-03T09:59:04.457Z,18.07
2019-04-03T10:01:36.343Z,53.23
2019-04-03T10:04:07.335Z,22.45
2019-04-03T10:06:39.520Z,22.90
2019-04-03T10:09:12.019Z,15.00
2019-04-03T10:11:43.402Z,12.73
2019-04-03T10:14:15.430Z,10.18
2019-04-03T10:16:46.517Z,9.80
2019-04-03T10:19:17.465Z,13.05
2019-04-03T10:21:50.060Z,10.55
2019-04-03T10:24:21.138Z,8.67
2019-04-03T10:26:51.987Z,10.55
2019-04-03T10:29:24.098Z,13.48
2019-04-03T10:31:56.051Z,19.95
2019-04-03T10:34:28.345Z,16.57
2019-04-03T10:36:59.403Z,42.40
2019-04-03T10:39:30.452Z,36.55
2019-04-03T10:42:01.724Z,18.35
2019-04-03T10:44:33.204Z,23.30
2019-04-03T10:47:04.163Z,18.62
2019-04-03T10:49:35.067Z,27.15
2019-04-03T10:52:06.300Z,33.23
2019-04-03T10:54:38.483Z,27.67
2019-04-03T10:57:09.709Z,16.05
2019-04-03T10:59:40.722Z,14.75
2019-04-03T11:02:11.985Z,12.33
2019-04-03T11:04:44.166Z,11.40
2019-04-03T11:07:15.977Z,12.75
2019-04-03T11:09:47.070Z,10.75
2019-04-03T11:12:19.090Z,13.68
2019-04-03T11:14:50.386Z,10.72
2019-04-03T11:17:21.526Z,13.38
2019-04-03T11:19:52.763Z,13.40
2019-04-03T11:22:23.720Z,13.10
2019-04-03T11:24:55.186Z,14.13
2019-04-03T11:27:40.851Z,15.00
2019-04-03T11:29:59.035Z,16.57
2019-04-03T11:32:30.011Z,15.80
2019-04-03T11:35:02.036Z,16.02
2019-04-03T11:37:33.831Z,15.30
2019-04-03T11:40:07.355Z,17.85
2019-04-03T11:42:38.328Z,12.85
2019-04-03T11:45:09.299Z,14.38
2019-04-03T11:47:40.410Z,18.60
2019-04-03T11:50:11.309Z,25.02
2019-04-03T11:52:42.402Z,22.25
2019-04-03T11:55:13.463Z,19.75
2019-04-03T11:57:47.427Z,13.98
2019-04-03T12:00:24.587Z,16.00
2019-04-03T12:02:55.739Z,14.28
2019-04-03T12:05:27.075Z,18.85
2019-04-03T12:07:58.956Z,48.33
2019-04-03T12:10:30.011Z,21.93
2019-04-03T12:13:03.626Z,23.73
2019-04-03T12:15:34.738Z,20.88
2019-04-03T12:18:06.436Z,17.57
2019-04-03T12:20:41.190Z,17.55
2019-04-03T12:23:10.286Z,14.15
2019-04-03T12:25:41.473Z,15.32
2019-04-03T12:28:12.606Z,18.42
2019-04-03T12:30:43.706Z,16.27
2019-04-03T12:33:14.683Z,17.52
2019-04-03T12:35:46.222Z,13.78
2019-04-03T12:38:17.258Z,13.08
2019-04-03T12:40:48.245Z,13.40
2019-04-03T12:43:20.283Z,13.55
2019-04-03T12:45:51.248Z,14.47
2019-04-03T12:48:22.225Z,15.80
2019-04-03T12:50:54.779Z,15.10
2019-04-03T12:53:25.956Z,17.10
2019-04-03T12:55:58.306Z,20.77
2019-04-03T12:58:45.721Z,29.53
2019-04-03T13:01:17.683Z,23.18
2019-04-03T13:03:49.483Z,26.65
2019-04-03T13:06:20.445Z,39.03
2019-04-03T13:08:52.740Z,25.72
2019-04-03T13:11:24.337Z,21.25
2019-04-03T13:13:55.450Z,14.90
2019-04-03T13:16:26.776Z,15.15
2019-04-03T13:18:57.775Z,18.80
2019-04-03T13:21:28.877Z,51.08
2019-04-03T13:23:59.926Z,247.20
2019-04-03T13:26:31.039Z,19.65
2019-04-03T13:29:02.264Z,76.33
2019-04-03T13:31:33.390Z,23.40
2019-04-03T13:34:04.497Z,22.32
2019-04-03T13:36:35.711Z,21.00
2019-04-03T13:39:07.568Z,21.15
2019-04-03T13:41:39.942Z,20.40
2019-04-03T13:44:11.330Z,22.17
2019-04-03T13:46:42.433Z,18.57
2019-04-03T13:49:15.177Z,20.02
2019-04-03T13:54:17.217Z,14.35
2019-04-03T13:56:48.131Z,13.30
2019-04-03T13:59:19.150Z,155.85
2019-04-03T14:01:50.154Z,36.30
2019-04-03T14:04:22.860Z,11.95
2019-04-03T14:06:53.745Z,11.50
2019-04-03T14:09:25.572Z,342.18
2019-04-03T14:11:56.873Z,149.68
2019-04-03T14:14:27.787Z,462.25
2019-04-03T14:16:58.801Z,141.68
2019-04-03T14:19:41.499Z,92.62
2019-04-03T14:22:03.470Z,44.18
2019-04-03T14:24:41.436Z,254.23
2019-04-03T14:27:17.436Z,284.57
2019-04-03T14:29:39.797Z,87.63
2019-04-03T14:32:13.572Z,55.92
2019-04-03T14:34:43.416Z,26.10
2019-04-03T14:37:14.396Z,17.85
2019-04-03T14:39:45.417Z,16.87
2019-04-03T14:42:16.390Z,14.85
2019-04-03T14:44:47.505Z,18.15
2019-04-03T14:47:20.149Z,18.32
2019-04-03T14:49:51.139Z,18.83
2019-04-03T14:52:22.218Z,16.40
2019-04-03T14:54:53.975Z,21.30
2019-04-03T14:57:29.602Z,22.77
2019-04-03T15:00:05.094Z,20.88
2019-04-03T15:02:34.850Z,19.00
2019-04-03T15:05:07.419Z,20.50
2019-04-03T15:07:39.123Z,18.90
2019-04-03T15:10:10.872Z,196.32
2019-04-03T15:12:42.260Z,55.48
2019-04-03T15:15:13.219Z,134.50
2019-04-03T15:17:44.471Z,33.20
2019-04-03T15:20:17.929Z,33.67
2019-04-03T15:22:48.371Z,25.07
2019-04-03T15:25:20.688Z,23.30
2019-04-03T15:27:51.830Z,18.05
2019-04-03T15:30:24.915Z,19.12
2019-04-03T15:32:55.871Z,20.50
2019-04-03T15:35:26.916Z,21.60
2019-04-03T15:37:58.230Z,19.65
2019-04-03T15:40:29.825Z,16.77
2019-04-03T15:43:01.464Z,19.80
2019-04-03T15:45:32.475Z,19.70
2019-04-03T15:48:03.645Z,21.68
2019-04-03T15:50:37.710Z,19.95
2019-04-03T15:53:07.399Z,22.37
2019-04-03T15:55:39.455Z,19.70
2019-04-03T15:58:10.597Z,26.17
2019-04-03T16:00:42.856Z,21.15
2019-04-03T16:03:17.684Z,17.55
2019-04-03T16:05:48.120Z,19.87
2019-04-03T16:08:19.678Z,21.20
2019-04-03T16:10:51.692Z,27.30
2019-04-03T16:13:22.783Z,21.15
2019-04-03T16:15:56.212Z,27.48
2019-04-03T16:18:26.540Z,22.33
2019-04-03T16:20:57.459Z,25.32
2019-04-03T16:23:28.589Z,23.38
2019-04-03T16:25:59.770Z,19.60
2019-04-03T16:28:33.392Z,17.77
2019-04-03T16:31:03.770Z,18.43
2019-04-03T16:33:35.804Z,19.60
2019-04-03T16:36:07.523Z,20.68
2019-04-03T16:38:38.468Z,26.40
2019-04-03T16:41:10.866Z,24.27
2019-04-03T16:43:42.413Z,29.20
2019-04-03T16:46:17.835Z,36.80
2019-04-03T16:48:49.932Z,33.78
2019-04-03T16:51:22.387Z,24.05
2019-04-03T16:53:54.353Z,29.50
2019-04-03T16:56:25.665Z,21.82
2019-04-03T16:58:59.585Z,22.58
2019-04-03T17:01:29.387Z,25.00
2019-04-03T17:04:02.880Z,22.58
2019-04-03T17:06:34.152Z,23.70
2019-04-03T17:09:07.885Z,21.45
2019-04-03T17:11:43.539Z,20.62
2019-04-03T17:14:14.814Z,22.52
2019-04-03T17:16:46.969Z,27.55
2019-04-03T17:19:18.842Z,34.85
2019-04-03T17:21:50.385Z,30.45
2019-04-03T17:24:21.484Z,25.12
2019-04-03T17:26:57.371Z,30.05
2019-04-03T17:29:24.973Z,26.43
2019-04-03T17:31:58.136Z,22.27
2019-04-03T17:34:29.058Z,20.60
2019-04-03T17:37:01.450Z,23.80
2019-04-03T17:39:33.912Z,25.02
2019-04-03T17:42:06.771Z,25.48
2019-04-03T17:44:38.404Z,20.40
2019-04-03T17:47:09.781Z,55.43
2019-04-03T17:49:40.842Z,30.00
2019-04-03T17:52:11.763Z,38.95
2019-04-03T17:54:42.708Z,27.82
2019-04-03T17:57:14.174Z,36.73
2019-04-03T17:59:46.981Z,33.85
2019-04-03T18:02:17.960Z,31.07
2019-04-03T18:04:51.170Z,25.27
2019-04-03T18:07:21.601Z,23.53
2019-04-03T18:09:52.529Z,25.88
2019-04-03T18:12:24.365Z,25.60
2019-04-03T18:14:55.731Z,33.13
2019-04-03T18:17:28.197Z,28.67
2019-04-03T18:19:59.329Z,31.05
2019-04-03T18:22:30.237Z,32.53
2019-04-03T18:25:01.327Z,30.17
2019-04-03T18:27:33.525Z,35.85
2019-04-03T18:30:11.823Z,41.98
2019-04-03T18:32:45.514Z,37.65
2019-04-03T18:35:15.077Z,38.08
2019-04-03T18:37:46.083Z,43.15
2019-04-03T18:40:16.992Z,43.17
2019-04-03T18:42:50.182Z,46.10
2019-04-03T18:45:25.470Z,74.97
2019-04-03T18:47:53.254Z,56.53
2019-04-03T18:50:24.363Z,45.10
2019-04-03T18:52:55.541Z,40.33
2019-04-03T18:55:26.666Z,47.23
2019-04-03T18:57:57.684Z,43.70
2019-04-03T19:00:30.447Z,42.38
2019-04-03T19:03:01.444Z,41.07
2019-04-03T19:05:32.588Z,41.70
2019-04-03T19:08:12.914Z,46.33
2019-04-03T19:10:36.335Z,45.83
2019-04-03T19:13:08.247Z,57.27
2019-04-03T19:15:39.322Z,47.35
2019-04-03T19:18:19.423Z,50.95
2019-04-03T19:20:43.067Z,199.33
2019-04-03T19:23:14.103Z,473.90
2019-04-03T19:25:45.864Z,398.13
2019-04-03T19:28:16.855Z,328.10
2019-04-03T19:30:47.884Z,190.07
2019-04-03T19:33:18.933Z,79.47
2019-04-03T19:35:49.957Z,72.12
2019-04-03T19:38:20.920Z,55.85
2019-04-03T19:40:51.937Z,56.88
2019-04-03T19:43:22.965Z,51.53
2019-04-03T19:45:53.996Z,53.83
2019-04-03T19:48:25.645Z,53.52
2019-04-03T19:50:57.347Z,59.27
2019-04-03T19:53:28.371Z,58.75
2019-04-03T19:55:59.465Z,54.53
2019-04-03T19:58:30.398Z,52.13
2019-04-03T20:01:03.597Z,62.55
2019-04-03T20:03:34.285Z,61.98
2019-04-03T20:06:06.279Z,73.33
2019-04-03T20:08:37.364Z,105.95
2019-04-03T20:11:08.464Z,100.10
2019-04-03T20:13:40.442Z,95.03
2019-04-03T20:16:11.537Z,110.45
2019-04-03T20:18:42.478Z,106.03
2019-04-03T20:21:15.241Z,100.22
2019-04-03T20:23:48.515Z,105.95
2019-04-03T20:26:20.381Z,97.15
2019-04-03T20:28:51.277Z,100.02
2019-04-03T20:31:22.247Z,108.50
2019-04-03T20:33:53.294Z,111.37
2019-04-03T20:36:24.291Z,93.07
2019-04-03T20:38:55.942Z,89.28
2019-04-03T20:41:28.093Z,84.22
2019-04-03T20:43:59.061Z,105.40
2019-04-03T20:46:30.193Z,101.92
2019-04-03T20:49:03.152Z,101.97
2019-04-03T20:51:35.481Z,108.57
2019-04-03T20:54:06.710Z,103.12
2019-04-03T20:56:37.883Z,88.17
2019-04-03T20:59:11.149Z,111.55
2019-04-03T21:01:41.636Z,103.00
2019-04-03T21:04:12.985Z,100.95
2019-04-03T21:06:45.257Z,83.55
2019-04-03T21:09:16.366Z,86.92
2019-04-03T21:11:47.306Z,97.53
2019-04-03T21:14:19.414Z,103.25
2019-04-03T21:16:50.470Z,98.27
2019-04-03T21:19:22.008Z,96.87
2019-04-03T21:21:54.403Z,94.47
2019-04-03T21:24:25.313Z,104.00
2019-04-03T21:26:56.386Z,110.35
2019-04-03T21:29:27.299Z,93.85
2019-04-03T21:31:58.374Z,112.90
2019-04-03T21:34:31.009Z,99.52
2019-04-03T21:37:02.041Z,108.83
2019-04-03T21:39:33.873Z,111.97
2019-04-03T21:42:05.122Z,149.25
2019-04-03T21:44:36.026Z,128.15
2019-04-03T21:47:06.949Z,131.67
2019-04-03T21:49:37.932Z,121.40
2019-04-03T21:52:08.859Z,107.95
2019-04-03T21:54:39.731Z,120.80
2019-04-03T21:57:10.706Z,112.75
2019-04-03T21:59:42.239Z,111.00
2019-04-03T22:02:14.022Z,126.53
2019-04-03T22:04:46.052Z,119.95
2019-04-03T22:07:17.131Z,115.85
2019-04-03T22:09:48.109Z,124.80
2019-04-03T22:12:19.111Z,192.18
2019-04-03T22:14:50.864Z,124.20
2019-04-03T22:17:22.462Z,124.82
2019-04-03T22:19:53.481Z,135.48
2019-04-03T22:22:24.699Z,129.03
2019-04-03T22:24:55.625Z,124.80
2019-04-03T22:27:26.557Z,128.02
2019-04-03T22:29:57.501Z,118.57
2019-04-03T22:32:28.416Z,132.35
2019-04-03T22:35:00.933Z,111.85
2019-04-03T22:37:33.248Z,126.47
2019-04-03T22:40:05.803Z,119.55
2019-04-03T22:42:36.722Z,108.80
2019-04-03T22:45:07.699Z,122.17
2019-04-03T22:47:38.639Z,118.75
2019-04-03T22:50:10.008Z,126.47
2019-04-03T22:52:41.048Z,120.82
2019-04-03T22:55:12.978Z,117.35
2019-04-03T22:57:45.573Z,124.27
2019-04-03T23:00:16.506Z,116.60
2019-04-03T23:02:47.524Z,114.82
2019-04-03T23:05:18.518Z,122.65
2019-04-03T23:07:52.043Z,113.55
2019-04-03T23:10:23.672Z,112.50
2019-04-03T23:12:56.226Z,114.70
2019-04-03T23:15:28.139Z,115.67
2019-04-03T23:17:59.299Z,108.92
2019-04-03T23:20:30.217Z,110.97
2019-04-03T23:23:01.203Z,106.67
2019-04-03T23:25:32.088Z,108.92
2019-04-03T23:28:03.680Z,110.92
2019-04-03T23:30:34.808Z,115.77
2019-04-03T23:33:05.747Z,111.10
2019-04-03T23:35:36.640Z,100.85
2019-04-03T23:38:07.661Z,105.95
2019-04-03T23:40:38.532Z,107.52
2019-04-03T23:43:09.505Z,103.12
2019-04-03T23:45:43.572Z,117.28
2019-04-03T23:48:13.321Z,140.10
2019-04-03T23:50:44.384Z,115.67
2019-04-03T23:53:15.385Z,169.32
2019-04-03T23:55:46.288Z,180.32
2019-04-03T23:58:17.244Z,163.47
